Time;durP1;ratioP1;P1;durP2;ratioP2;P2;SDS_P1;SDS_P2;PMS_P1;PMS_P2;Temp;Humidity;BMP_temperature;BMP_pressure;BME280_temperature;BME280_humidity;BME280_pressure;Samples;Min_cycle;Max_cycle;Signal;HPM_P1;HPM_P2
2021/11/27 09:03:50;;;;;;;7.40;2.43;;;3.80;99.90;;;;;;4914072;29;20312;-72
2021/11/27 09:06:17;;;;;;;6.93;2.90;;;3.90;99.90;;;;;;4900023;29;20674;-72
2021/11/27 09:08:44;;;;;;;7.80;2.53;;;3.90;99.90;;;;;;4896736;29;20245;-73
2021/11/27 09:11:10;;;;;;;6.00;2.90;;;4.00;99.90;;;;;;4881492;29;20215;-76
2021/11/27 09:13:37;;;;;;;9.60;2.80;;;4.10;99.90;;;;;;4881364;29;20214;-72
2021/11/27 09:16:04;;;;;;;6.80;2.77;;;4.10;99.90;;;;;;4881085;29;20210;-73
2021/11/27 09:18:32;;;;;;;5.23;2.53;;;4.10;99.90;;;;;;4878402;29;20203;-74
2021/11/27 09:20:58;;;;;;;5.73;3.07;;;4.20;99.90;;;;;;4881500;29;20218;-73
2021/11/27 09:23:25;;;;;;;4.97;2.40;;;4.20;99.90;;;;;;4882054;29;20210;-72
2021/11/27 09:25:52;;;;;;;6.30;2.83;;;4.30;99.90;;;;;;4881079;29;20209;-74
2021/11/27 09:28:18;;;;;;;5.23;2.93;;;4.30;99.90;;;;;;4881322;29;20607;-73
2021/11/27 09:30:45;;;;;;;9.07;2.77;;;4.30;99.90;;;;;;4881893;29;20324;-74
2021/11/27 09:33:12;;;;;;;7.77;2.80;;;4.40;99.90;;;;;;4880788;29;20614;-74
2021/11/27 09:35:38;;;;;;;8.67;2.93;;;4.50;99.90;;;;;;4880619;29;20663;-78
2021/11/27 09:38:05;;;;;;;3.97;2.30;;;4.60;99.90;;;;;;4876323;29;20211;-72
2021/11/27 09:40:32;;;;;;;6.47;2.97;;;4.70;99.90;;;;;;4877332;29;20231;-77
2021/11/27 09:42:59;;;;;;;4.67;2.50;;;4.60;99.90;;;;;;4878285;29;20211;-77
2021/11/27 09:45:26;;;;;;;7.60;2.33;;;4.70;99.90;;;;;;4877959;29;20660;-73
2021/11/27 09:47:52;;;;;;;5.70;2.70;;;4.80;99.90;;;;;;4877974;29;20239;-70
2021/11/27 09:50:19;;;;;;;5.23;2.60;;;4.80;99.90;;;;;;4877729;29;20237;-77
2021/11/27 09:52:47;;;;;;;3.57;2.10;;;4.50;99.90;;;;;;4877992;29;20211;-75
2021/11/27 09:55:16;;;;;;;5.37;2.30;;;4.20;99.90;;;;;;4878192;29;20740;-71
2021/11/27 09:57:43;;;;;;;5.40;2.63;;;4.10;99.90;;;;;;4877510;29;20211;-78
2021/11/27 10:00:11;;;;;;;7.43;2.10;;;4.00;99.90;;;;;;4877792;29;20233;-71
2021/11/27 10:02:41;;;;;;;5.77;2.67;;;4.20;99.90;;;;;;4877677;29;20223;-74
2021/11/27 10:05:11;;;;;;;4.03;2.10;;;4.40;99.90;;;;;;4878996;29;20211;-76
2021/11/27 10:07:40;;;;;;;4.63;2.53;;;4.50;99.90;;;;;;4879219;29;20231;-76
2021/11/27 10:10:08;;;;;;;6.50;2.73;;;4.30;99.90;;;;;;4879511;29;20235;-73
2021/11/27 10:12:35;;;;;;;4.47;2.57;;;4.40;99.90;;;;;;4879176;29;20274;-78
2021/11/27 10:15:02;;;;;;;9.90;2.67;;;4.50;99.90;;;;;;4879272;29;20211;-76
2021/11/27 10:17:32;;;;;;;5.40;2.80;;;4.50;99.90;;;;;;4878805;29;20568;-78
2021/11/27 10:20:02;;;;;;;9.13;2.60;;;4.50;99.90;;;;;;4878697;29;20286;-76
2021/11/27 10:22:46;;;;;;;6.53;2.23;;;4.50;99.90;;;;;;4879550;29;20215;-75
2021/11/27 10:25:34;;;;;;;5.47;2.60;;;4.60;99.90;;;;;;4882676;29;20217;-74
2021/11/27 10:28:07;;;;;;;6.63;3.10;;;4.60;99.90;;;;;;4882906;29;20234;-77
2021/11/27 10:30:48;;;;;;;4.13;2.43;;;4.50;99.90;;;;;;4882805;29;20231;-76
2021/11/27 10:33:16;;;;;;;4.13;2.60;;;4.50;99.90;;;;;;4882549;29;20665;-78
2021/11/27 10:35:56;;;;;;;6.13;2.43;;;4.50;99.90;;;;;;4882412;29;20247;-73
2021/11/27 10:38:34;;;;;;;4.80;2.67;;;4.50;99.90;;;;;;4882426;29;20247;-73
2021/11/27 10:41:01;;;;;;;7.73;2.47;;;4.40;99.90;;;;;;4882549;29;20207;-73
2021/11/27 10:43:28;;;;;;;6.17;3.27;;;4.30;99.90;;;;;;4882734;29;20215;-72
2021/11/27 10:45:55;;;;;;;6.20;2.87;;;4.30;99.90;;;;;;4882360;29;20667;-78
2021/11/27 10:48:24;;;;;;;4.20;2.60;;;4.40;99.90;;;;;;4881954;29;20704;-75
2021/11/27 10:50:54;;;;;;;4.80;2.20;;;4.40;99.90;;;;;;4882431;29;20625;-73
2021/11/27 10:53:27;;;;;;;6.83;3.43;;;4.40;99.90;;;;;;4881838;29;20207;-72
2021/11/27 10:56:03;;;;;;;7.60;2.80;;;4.40;99.90;;;;;;4881881;29;20298;-74
2021/11/27 10:58:30;;;;;;;7.00;2.80;;;4.30;99.90;;;;;;4888088;29;20693;-72
2021/11/27 11:00:59;;;;;;;10.67;2.60;;;4.30;99.90;;;;;;4898829;29;20694;-76
2021/11/27 11:03:29;;;;;;;10.13;2.77;;;4.30;99.90;;;;;;4899701;29;20224;-79
2021/11/27 11:05:58;;;;;;;10.97;2.97;;;4.20;99.90;;;;;;4900395;29;20215;-73
2021/11/27 11:08:36;;;;;;;5.67;2.60;;;4.20;99.90;;;;;;4898957;29;20770;-77
2021/11/27 11:11:27;;;;;;;5.80;2.40;;;4.20;99.90;;;;;;4897821;29;20207;-73
2021/11/27 11:13:55;;;;;;;8.23;3.47;;;4.10;99.90;;;;;;4899239;29;20665;-78
2021/11/27 11:16:24;;;;;;;5.03;2.70;;;4.10;99.90;;;;;;4899365;29;20229;-73
2021/11/27 11:18:52;;;;;;;7.13;3.30;;;4.10;99.90;;;;;;4881146;29;20238;-75
2021/11/27 11:21:22;;;;;;;7.90;3.37;;;4.20;99.90;;;;;;4881119;29;20671;-76
2021/11/27 11:23:50;;;;;;;6.17;2.97;;;4.30;99.90;;;;;;4881041;29;20302;-78
2021/11/27 11:26:21;;;;;;;10.13;2.93;;;4.40;99.90;;;;;;4881372;29;20263;-77
2021/11/27 11:28:54;;;;;;;5.17;2.93;;;4.50;99.90;;;;;;4881436;29;20294;-73
2021/11/27 11:31:23;;;;;;;8.37;3.20;;;4.40;99.90;;;;;;4881358;29;20211;-79
2021/11/27 11:33:52;;;;;;;4.60;2.83;;;4.60;99.90;;;;;;4880111;29;20686;-78
2021/11/27 11:36:22;;;;;;;6.60;3.10;;;4.50;99.90;;;;;;4880658;29;20211;-73
2021/11/27 11:38:53;;;;;;;6.30;2.60;;;4.60;99.90;;;;;;4880854;29;20242;-75
2021/11/27 11:41:21;;;;;;;4.83;2.70;;;4.60;99.90;;;;;;4881541;29;20212;-72
2021/11/27 11:43:49;;;;;;;6.30;2.90;;;4.70;99.90;;;;;;4881204;29;20572;-75
2021/11/27 11:46:17;;;;;;;9.97;2.17;;;4.70;99.90;;;;;;4881066;29;20213;-74
2021/11/27 11:48:49;;;;;;;6.83;2.67;;;4.80;99.90;;;;;;4880901;29;20254;-73
2021/11/27 11:51:34;;;;;;;4.70;2.43;;;4.80;99.90;;;;;;4881658;29;20211;-73
2021/11/27 11:54:02;;;;;;;6.50;2.10;;;5.00;99.90;;;;;;4881127;29;20238;-74
2021/11/27 11:56:35;;;;;;;7.57;2.37;;;5.20;99.90;;;;;;4880690;29;20217;-73
2021/11/27 11:59:20;;;;;;;6.40;2.23;;;5.50;99.90;;;;;;4880878;29;20295;-73
2021/11/27 12:02:11;;;;;;;5.13;1.93;;;5.80;99.90;;;;;;4881556;29;20237;-77
2021/11/27 12:04:38;;;;;;;5.70;2.50;;;6.10;99.90;;;;;;4880489;29;20211;-78
2021/11/27 12:07:12;;;;;;;4.30;2.03;;;6.10;99.90;;;;;;4881059;29;20215;-77
2021/11/27 12:10:12;;;;;;;4.00;1.70;;;6.20;99.90;;;;;;4895912;29;20707;-79
2021/11/27 12:12:39;;;;;;;7.50;2.03;;;6.30;99.90;;;;;;4897562;29;20683;-75
2021/11/27 12:15:06;;;;;;;4.67;2.07;;;6.20;99.90;;;;;;4897718;29;20418;-81
2021/11/27 12:17:35;;;;;;;8.00;2.07;;;6.20;99.90;;;;;;4896819;29;20623;-75
2021/11/27 12:20:04;;;;;;;4.03;2.00;;;6.20;99.90;;;;;;4898919;29;20230;-72
2021/11/27 12:22:38;;;;;;;3.77;2.10;;;6.30;99.90;;;;;;4897508;29;20210;-73
2021/11/27 12:25:28;;;;;;;4.70;1.60;;;6.20;99.90;;;;;;4897616;29;20202;-73
2021/11/27 12:28:22;;;;;;;4.47;1.80;;;6.20;99.90;;;;;;4896047;29;20567;-73
2021/11/27 12:30:57;;;;;;;7.10;1.80;;;6.20;99.90;;;;;;4894087;29;20234;-73
2021/11/27 12:33:59;;;;;;;4.60;2.13;;;6.30;99.90;;;;;;4894469;29;20215;-73
2021/11/27 12:36:57;;;;;;;4.47;1.90;;;6.60;99.90;;;;;;4880136;29;20294;-78
2021/11/27 12:39:39;;;;;;;8.33;2.30;;;6.80;99.90;;;;;;4877974;29;20583;-76
2021/11/27 12:42:41;;;;;;;3.60;1.77;;;6.90;99.90;;;;;;4879907;29;20210;-76
2021/11/27 12:45:10;;;;;;;4.67;1.97;;;7.20;99.90;;;;;;4856872;29;20227;-74
2021/11/27 12:47:43;;;;;;;4.13;1.97;;;7.20;99.90;;;;;;4884138;29;20214;-75
2021/11/27 12:50:21;;;;;;;8.20;2.20;;;7.20;99.90;;;;;;4879722;29;20250;-75
2021/11/27 12:52:49;;;;;;;3.50;2.00;;;7.10;99.90;;;;;;4879966;29;20211;-75
2021/11/27 12:55:41;;;;;;;7.83;1.83;;;7.00;99.90;;;;;;4885284;29;20694;-71
2021/11/27 12:58:32;;;;;;;7.23;1.60;;;7.00;99.90;;;;;;4899261;29;20214;-85
2021/11/27 13:01:00;;;;;;;6.07;1.80;;;7.00;99.90;;;;;;4891602;29;20207;-82
2021/11/27 13:03:27;;;;;;;7.73;2.23;;;6.80;99.90;;;;;;4897264;29;20218;-74
2021/11/27 13:05:53;;;;;;;3.13;1.70;;;7.00;99.90;;;;;;4893390;29;20214;-74
2021/11/27 13:08:33;;;;;;;4.53;1.63;;;7.00;99.90;;;;;;4895858;29;20206;-81
2021/11/27 13:11:09;;;;;;;5.70;1.67;;;6.90;99.90;;;;;;4895068;29;20301;-77
2021/11/27 13:13:41;;;;;;;5.93;1.73;;;6.70;99.90;;;;;;4896110;29;20214;-75
2021/11/27 13:16:12;;;;;;;4.63;1.60;;;6.80;99.90;;;;;;4894220;29;20214;-74
2021/11/27 13:18:46;;;;;;;6.77;2.03;;;6.80;99.90;;;;;;4896550;29;20580;-77
2021/11/27 13:21:13;;;;;;;3.37;1.67;;;6.90;99.90;;;;;;4896710;29;20216;-77
2021/11/27 13:23:42;;;;;;;3.93;1.80;;;7.00;99.90;;;;;;4896644;29;20210;-74
2021/11/27 13:26:12;;;;;;;8.30;2.33;;;7.10;99.90;;;;;;4895951;29;20206;-77
2021/11/27 13:28:42;;;;;;;3.63;1.60;;;7.20;99.90;;;;;;4896097;29;20238;-75
2021/11/27 13:31:28;;;;;;;5.67;1.90;;;7.20;99.90;;;;;;4896946;29;20241;-78
2021/11/27 13:33:57;;;;;;;5.33;1.83;;;7.30;99.90;;;;;;4894196;29;20221;-72
2021/11/27 13:36:41;;;;;;;3.87;2.37;;;7.40;99.90;;;;;;4897892;29;20210;-76
2021/11/27 13:39:14;;;;;;;5.13;1.90;;;7.40;99.90;;;;;;4896350;29;20236;-73
2021/11/27 13:41:43;;;;;;;5.80;2.13;;;7.50;99.90;;;;;;4896824;29;20210;-71
2021/11/27 13:44:11;;;;;;;6.13;1.73;;;7.60;99.90;;;;;;4897733;29;20574;-71
2021/11/27 13:46:51;;;;;;;3.27;2.00;;;7.60;99.90;;;;;;4897746;29;20213;-72
2021/11/27 13:49:28;;;;;;;4.43;1.60;;;7.60;99.90;;;;;;4897272;29;20237;-75
2021/11/27 13:51:55;;;;;;;8.00;2.17;;;7.50;99.90;;;;;;4897566;29;20218;-75
2021/11/27 13:54:22;;;;;;;6.07;2.07;;;7.60;99.90;;;;;;4897328;29;20664;-74
2021/11/27 13:56:52;;;;;;;4.33;1.93;;;7.50;99.90;;;;;;4897243;29;20210;-72
2021/11/27 13:59:26;;;;;;;4.47;2.17;;;7.30;99.90;;;;;;4897114;29;20315;-74
2021/11/27 14:02:06;;;;;;;6.00;1.63;;;7.20;99.90;;;;;;4891580;29;20220;-72
2021/11/27 14:04:34;;;;;;;4.20;2.00;;;7.10;99.90;;;;;;4882793;29;20207;-73
2021/11/27 14:07:04;;;;;;;8.33;2.17;;;7.20;99.90;;;;;;4897177;29;20207;-72
2021/11/27 14:09:49;;;;;;;3.33;1.90;;;7.20;99.90;;;;;;4897274;29;20245;-73
2021/11/27 14:12:42;;;;;;;3.20;2.10;;;7.20;99.90;;;;;;4897058;29;20214;-72
2021/11/27 14:15:11;;;;;;;4.90;2.00;;;7.20;99.90;;;;;;4889662;29;20206;-71
2021/11/27 14:17:40;;;;;;;7.60;2.30;;;7.20;99.90;;;;;;4897196;29;20261;-72
2021/11/27 14:20:14;;;;;;;7.83;2.03;;;7.20;99.90;;;;;;4896550;29;20230;-72
2021/11/27 14:23:07;;;;;;;4.53;1.90;;;7.10;99.90;;;;;;4896961;29;20568;-72
2021/11/27 14:25:36;;;;;;;5.43;2.33;;;7.00;99.90;;;;;;4879141;29;20293;-72
2021/11/27 14:28:06;;;;;;;5.57;2.60;;;7.10;99.90;;;;;;4897157;29;20304;-72
2021/11/27 14:30:36;;;;;;;5.00;2.03;;;7.00;99.90;;;;;;4896856;29;20755;-72
2021/11/27 14:33:28;;;;;;;5.20;1.67;;;7.00;99.90;;;;;;4881522;29;20233;-71
2021/11/27 14:36:04;;;;;;;3.37;1.33;;;6.80;99.90;;;;;;4884014;29;20214;-72
2021/11/27 14:38:51;;;;;;;5.73;1.67;;;6.60;99.90;;;;;;4897083;29;20206;-71
2021/11/27 14:41:23;;;;;;;2.67;1.23;;;6.40;99.90;;;;;;4896966;29;20214;-76
2021/11/27 14:44:01;;;;;;;3.60;1.73;;;6.30;99.90;;;;;;4897115;29;20214;-78
2021/11/27 14:46:37;;;;;;;3.10;1.43;;;6.20;99.90;;;;;;4897083;29;20237;-77
2021/11/27 14:49:29;;;;;;;4.23;1.77;;;6.30;99.90;;;;;;4897222;29;20334;-77
2021/11/27 14:52:04;;;;;;;2.30;1.43;;;6.30;99.90;;;;;;4879835;29;20250;-77
2021/11/27 14:54:34;;;;;;;4.33;2.17;;;6.30;99.90;;;;;;4897416;29;20214;-77
2021/11/27 14:57:03;;;;;;;3.90;2.13;;;6.40;99.90;;;;;;4897388;29;20233;-78
2021/11/27 14:59:31;;;;;;;4.63;1.80;;;6.40;99.90;;;;;;4897174;29;20234;-77
2021/11/27 15:01:58;;;;;;;2.50;1.57;;;6.50;99.90;;;;;;4897385;29;20701;-77
2021/11/27 15:04:25;;;;;;;3.80;1.50;;;6.60;99.90;;;;;;4884304;29;20580;-77
2021/11/27 15:06:52;;;;;;;1.97;1.37;;;6.60;99.90;;;;;;4878581;29;20218;-74
2021/11/27 15:09:19;;;;;;;4.07;1.10;;;6.50;99.90;;;;;;4879364;29;20623;-78
2021/11/27 15:11:46;;;;;;;2.30;1.37;;;6.60;99.90;;;;;;4882826;29;20203;-77
2021/11/27 15:14:13;;;;;;;3.23;1.10;;;6.50;99.90;;;;;;4900028;29;20210;-77
2021/11/27 15:16:44;;;;;;;3.03;1.30;;;6.40;99.90;;;;;;4899261;29;20211;-78
2021/11/27 15:19:10;;;;;;;2.57;1.50;;;6.30;99.90;;;;;;4899156;29;20234;-77
2021/11/27 15:21:37;;;;;;;2.00;1.37;;;6.20;99.90;;;;;;4899701;29;20221;-77
2021/11/27 15:24:05;;;;;;;2.07;1.20;;;6.20;99.90;;;;;;4899361;29;20206;-77
2021/11/27 15:26:33;;;;;;;2.47;1.10;;;6.20;99.90;;;;;;4899768;29;20387;-77
2021/11/27 15:29:01;;;;;;;5.97;1.50;;;6.20;99.90;;;;;;4899601;29;20329;-77
2021/11/27 15:31:29;;;;;;;3.20;1.40;;;6.20;99.90;;;;;;4899297;29;20236;-76
2021/11/27 15:33:57;;;;;;;5.90;1.50;;;6.40;99.90;;;;;;4896694;29;20207;-78
2021/11/27 15:36:24;;;;;;;2.93;1.10;;;6.60;99.90;;;;;;4881473;29;20207;-78
2021/11/27 15:38:51;;;;;;;2.47;1.30;;;6.60;99.90;;;;;;4879688;29;20231;-77
2021/11/27 15:41:18;;;;;;;1.50;1.00;;;6.50;99.90;;;;;;4886562;29;20213;-76
2021/11/27 15:43:45;;;;;;;3.30;1.33;;;6.50;99.90;;;;;;4899683;29;20210;-76
2021/11/27 15:46:12;;;;;;;3.87;1.80;;;6.50;99.90;;;;;;4899673;29;20217;-77
2021/11/27 15:48:40;;;;;;;4.87;1.73;;;6.40;99.90;;;;;;4899693;29;20210;-77
2021/11/27 15:51:09;;;;;;;3.07;1.13;;;6.50;99.90;;;;;;4899766;29;20241;-78
2021/11/27 15:53:37;;;;;;;9.83;2.23;;;6.60;99.90;;;;;;4899937;29;20533;-77
2021/11/27 15:56:04;;;;;;;3.40;1.40;;;6.50;99.90;;;;;;4899908;29;20210;-75
2021/11/27 15:58:31;;;;;;;3.93;1.70;;;6.30;99.90;;;;;;4899886;29;20210;-78
2021/11/27 16:00:58;;;;;;;3.70;1.40;;;6.30;99.90;;;;;;4899993;29;20206;-75
2021/11/27 16:03:24;;;;;;;2.77;1.50;;;6.20;99.90;;;;;;4899644;29;20233;-75
2021/11/27 16:05:51;;;;;;;7.00;2.37;;;6.20;99.90;;;;;;4896727;29;20211;-76
2021/11/27 16:08:22;;;;;;;7.33;3.23;;;6.20;99.90;;;;;;4880826;29;20215;-77
2021/11/27 16:10:49;;;;;;;5.77;2.63;;;6.10;99.90;;;;;;4880833;29;20330;-76
2021/11/27 16:13:15;;;;;;;2.73;2.00;;;6.20;99.90;;;;;;4880912;29;20215;-76
2021/11/27 16:15:47;;;;;;;2.77;1.77;;;6.10;99.90;;;;;;4881046;29;20211;-77
2021/11/27 16:18:13;;;;;;;4.00;1.40;;;6.20;99.90;;;;;;4880775;29;20207;-76
2021/11/27 16:20:41;;;;;;;2.50;1.30;;;6.20;99.90;;;;;;4880320;29;20238;-75
2021/11/27 16:23:08;;;;;;;2.20;1.30;;;6.30;99.90;;;;;;4880682;29;20314;-77
2021/11/27 16:25:36;;;;;;;2.93;1.20;;;6.30;99.90;;;;;;4880606;29;20293;-76
2021/11/27 16:28:04;;;;;;;3.30;1.47;;;6.20;99.90;;;;;;4881227;29;20211;-76
2021/11/27 16:30:31;;;;;;;2.20;1.60;;;6.30;99.90;;;;;;4880517;29;20250;-75
2021/11/27 16:32:58;;;;;;;2.60;1.70;;;6.20;99.90;;;;;;4880809;29;20362;-76
2021/11/27 16:35:26;;;;;;;4.37;2.03;;;6.30;99.90;;;;;;4880697;29;20218;-75
2021/11/27 16:37:56;;;;;;;2.80;1.77;;;6.20;99.90;;;;;;4880287;29;20739;-77
2021/11/27 16:40:23;;;;;;;3.30;1.90;;;6.10;99.90;;;;;;4880350;29;20716;-76
2021/11/27 16:42:52;;;;;;;3.00;1.80;;;6.00;99.90;;;;;;4880684;29;20218;-76
2021/11/27 16:45:19;;;;;;;3.07;1.90;;;6.00;99.90;;;;;;4880537;29;20608;-77
2021/11/27 16:47:47;;;;;;;2.80;2.00;;;6.00;99.90;;;;;;4880687;29;20231;-75
2021/11/27 16:50:14;;;;;;;5.00;2.00;;;6.00;99.90;;;;;;4880019;29;20254;-77
2021/11/27 16:52:41;;;;;;;4.27;2.33;;;5.90;99.90;;;;;;4880267;29;20215;-76
2021/11/27 16:55:11;;;;;;;6.43;2.07;;;5.70;99.90;;;;;;4879511;29;20211;-74
2021/11/27 16:57:38;;;;;;;3.73;1.80;;;5.50;99.90;;;;;;4880027;29;20263;-75
2021/11/27 17:00:07;;;;;;;3.13;2.03;;;5.30;99.90;;;;;;4880154;29;20247;-78
2021/11/27 17:02:38;;;;;;;2.93;1.90;;;5.30;99.90;;;;;;4880135;29;20231;-78
2021/11/27 17:05:06;;;;;;;4.30;2.10;;;5.20;99.90;;;;;;4879693;29;20716;-78
2021/11/27 17:07:32;;;;;;;5.17;2.43;;;5.10;99.90;;;;;;4879850;29;20211;-77
2021/11/27 17:09:59;;;;;;;6.73;2.33;;;5.00;99.90;;;;;;4879418;29;20246;-77
2021/11/27 17:12:26;;;;;;;4.63;2.13;;;4.90;99.90;;;;;;4879801;29;20215;-75
2021/11/27 17:14:53;;;;;;;5.63;2.30;;;4.80;99.90;;;;;;4879693;29;20215;-77
2021/11/27 17:17:21;;;;;;;5.93;2.63;;;4.80;99.90;;;;;;4879830;29;20211;-76
2021/11/27 17:19:48;;;;;;;4.83;2.40;;;4.90;99.90;;;;;;4879469;29;20677;-77
2021/11/27 17:22:15;;;;;;;7.20;2.60;;;4.80;99.90;;;;;;4879911;29;20692;-77
2021/11/27 17:24:42;;;;;;;4.30;2.37;;;4.70;99.90;;;;;;4879899;29;20222;-77
2021/11/27 17:27:09;;;;;;;6.10;3.10;;;4.60;99.90;;;;;;4879793;29;20672;-76
2021/11/27 17:29:36;;;;;;;5.20;3.07;;;4.60;99.90;;;;;;4879885;29;20242;-78
2021/11/27 17:32:04;;;;;;;8.67;3.47;;;4.60;99.90;;;;;;4879195;29;20219;-78
2021/11/27 17:34:32;;;;;;;4.60;2.93;;;4.60;99.90;;;;;;4879245;29;20203;-77
2021/11/27 17:37:00;;;;;;;8.90;2.87;;;4.70;99.90;;;;;;4879730;29;20215;-75
2021/11/27 17:39:27;;;;;;;4.17;2.77;;;4.60;99.90;;;;;;4879473;29;20238;-78
2021/11/27 17:41:54;;;;;;;10.87;3.20;;;4.60;99.90;;;;;;4879548;29;20222;-78
2021/11/27 17:44:22;;;;;;;5.77;2.97;;;4.60;99.90;;;;;;4879408;29;20215;-78
2021/11/27 17:46:49;;;;;;;5.03;2.87;;;4.70;99.90;;;;;;4879425;29;20215;-78
2021/11/27 17:49:16;;;;;;;7.40;3.33;;;4.70;99.90;;;;;;4879169;29;20242;-76
2021/11/27 17:51:44;;;;;;;6.83;3.17;;;4.70;99.90;;;;;;4879105;29;20249;-75
2021/11/27 17:54:12;;;;;;;9.30;2.80;;;4.70;99.90;;;;;;4878687;29;20221;-77
2021/11/27 17:56:39;;;;;;;4.90;2.80;;;4.60;99.90;;;;;;4878903;29;20203;-76
2021/11/27 17:59:07;;;;;;;4.73;3.43;;;4.50;99.90;;;;;;4879300;29;20252;-78
2021/11/27 18:01:34;;;;;;;5.83;3.00;;;4.50;99.90;;;;;;4878977;29;20226;-75
2021/11/27 18:04:02;;;;;;;5.23;3.07;;;4.50;99.90;;;;;;4879547;29;20219;-76
2021/11/27 18:06:29;;;;;;;6.30;3.27;;;4.50;99.90;;;;;;4879346;29;20215;-76
2021/11/27 18:08:57;;;;;;;4.93;2.97;;;4.60;99.90;;;;;;4879230;29;20242;-76
2021/11/27 18:11:24;;;;;;;4.63;2.97;;;4.80;99.90;;;;;;4878593;29;20600;-76
2021/11/27 18:13:51;;;;;;;5.47;3.10;;;4.80;99.90;;;;;;4879527;29;20211;-76
2021/11/27 18:16:21;;;;;;;3.80;2.57;;;4.80;99.90;;;;;;4879292;29;20225;-76
2021/11/27 18:18:48;;;;;;;5.73;3.23;;;4.80;99.90;;;;;;4879102;29;20235;-76
2021/11/27 18:21:20;;;;;;;5.53;2.97;;;4.70;99.90;;;;;;4879221;29;20298;-76
2021/11/27 18:23:49;;;;;;;5.53;3.00;;;4.70;99.90;;;;;;4879475;29;20207;-76
2021/11/27 18:26:19;;;;;;;6.67;3.90;;;4.70;99.90;;;;;;4879036;29;20298;-76
2021/11/27 18:28:46;;;;;;;4.53;3.40;;;4.60;99.90;;;;;;4879285;29;20286;-76
2021/11/27 18:31:14;;;;;;;6.23;3.97;;;4.70;99.90;;;;;;4879096;29;20242;-72
2021/11/27 18:33:43;;;;;;;6.37;3.73;;;4.90;99.90;;;;;;4878455;29;20691;-75
2021/11/27 18:36:11;;;;;;;8.67;4.13;;;5.00;99.90;;;;;;4897003;29;20286;-76
2021/11/27 18:38:42;;;;;;;8.13;3.47;;;4.80;99.90;;;;;;4897743;29;20224;-75
2021/11/27 18:41:09;;;;;;;10.67;4.20;;;5.00;99.90;;;;;;4897229;29;20214;-74
2021/11/27 18:43:37;;;;;;;8.50;4.63;;;4.80;99.90;;;;;;4898114;29;20212;-76
2021/11/27 18:46:05;;;;;;;5.33;3.57;;;4.70;99.90;;;;;;4901308;29;20671;-75
2021/11/27 18:48:32;;;;;;;7.00;4.03;;;4.70;99.90;;;;;;4900871;29;20218;-75
2021/11/27 18:50:59;;;;;;;6.70;4.17;;;4.70;99.90;;;;;;4900895;29;20301;-79
2021/11/27 18:53:26;;;;;;;5.80;4.17;;;4.60;99.90;;;;;;4901165;29;20568;-74
2021/11/27 18:55:53;;;;;;;9.20;4.47;;;4.50;99.90;;;;;;4900948;29;20333;-75
2021/11/27 18:58:20;;;;;;;9.07;4.53;;;4.50;99.90;;;;;;4901272;29;20215;-75
2021/11/27 19:00:49;;;;;;;9.80;4.77;;;4.50;99.90;;;;;;4900853;29;20737;-76
2021/11/27 19:03:16;;;;;;;9.10;4.90;;;4.50;99.90;;;;;;4900821;29;20675;-75
2021/11/27 19:05:43;;;;;;;8.93;5.47;;;4.60;99.90;;;;;;4900921;29;20214;-75
2021/11/27 19:08:10;;;;;;;10.73;4.80;;;4.60;99.90;;;;;;4897629;29;20213;-74
2021/11/27 19:10:37;;;;;;;12.47;5.50;;;4.60;99.90;;;;;;4882169;29;20245;-75
2021/11/27 19:13:04;;;;;;;9.63;5.70;;;4.40;99.90;;;;;;4894529;29;20213;-71
2021/11/27 19:15:31;;;;;;;7.47;4.10;;;4.40;99.90;;;;;;4899414;29;20293;-76
2021/11/27 19:17:59;;;;;;;8.87;4.57;;;4.40;99.90;;;;;;4899464;29;20208;-76
2021/11/27 19:20:26;;;;;;;7.80;4.63;;;4.50;99.90;;;;;;4899017;29;20595;-74
2021/11/27 19:22:53;;;;;;;7.83;4.57;;;4.50;99.90;;;;;;4881128;29;20214;-74
2021/11/27 19:25:20;;;;;;;11.23;5.47;;;4.40;99.90;;;;;;4897037;29;20214;-73
2021/11/27 19:27:49;;;;;;;7.33;4.07;;;4.40;99.90;;;;;;4899011;29;20213;-75
2021/11/27 19:30:16;;;;;;;9.03;4.67;;;4.30;99.90;;;;;;4899825;29;20699;-73
2021/11/27 19:32:43;;;;;;;14.63;5.40;;;4.30;99.90;;;;;;4900163;29;20218;-76
2021/11/27 19:35:12;;;;;;;10.57;4.93;;;4.30;99.90;;;;;;4899804;29;20216;-75
2021/11/27 19:37:40;;;;;;;8.33;4.43;;;4.30;99.90;;;;;;4899631;29;20214;-74
2021/11/27 19:40:10;;;;;;;7.67;4.03;;;4.30;99.90;;;;;;4898840;29;20246;-76
2021/11/27 19:42:39;;;;;;;9.00;4.33;;;4.30;99.90;;;;;;4897757;29;20568;-75
2021/11/27 19:45:08;;;;;;;8.33;4.50;;;4.30;99.90;;;;;;4899624;29;20598;-74
2021/11/27 19:47:35;;;;;;;10.27;4.50;;;4.30;99.90;;;;;;4900767;29;20210;-74
2021/11/27 19:50:02;;;;;;;8.77;4.60;;;4.40;99.90;;;;;;4899879;29;20268;-78
2021/11/27 19:52:30;;;;;;;10.63;4.73;;;4.40;99.90;;;;;;4894524;29;20231;-75
2021/11/27 19:54:57;;;;;;;9.67;4.80;;;4.40;99.90;;;;;;4880081;29;20299;-76
2021/11/27 19:57:24;;;;;;;9.63;5.20;;;4.40;99.90;;;;;;4884094;29;20668;-76
2021/11/27 19:59:51;;;;;;;13.10;5.20;;;4.40;99.90;;;;;;4898008;29;20606;-76
2021/11/27 20:02:18;;;;;;;9.27;4.67;;;4.40;99.90;;;;;;4898429;29;20219;-77
2021/11/27 20:04:45;;;;;;;10.00;4.70;;;4.50;99.90;;;;;;4898718;29;20217;-76
2021/11/27 20:07:12;;;;;;;9.23;4.93;;;4.50;99.90;;;;;;4898659;29;20218;-76
2021/11/27 20:09:40;;;;;;;7.33;4.10;;;4.50;99.90;;;;;;4899380;29;20565;-76
2021/11/27 20:12:08;;;;;;;11.03;4.40;;;4.40;99.90;;;;;;4898894;29;20325;-77
2021/11/27 20:14:35;;;;;;;9.00;4.07;;;4.30;99.90;;;;;;4899548;29;20218;-77
2021/11/27 20:17:02;;;;;;;7.57;4.37;;;4.20;99.90;;;;;;4899663;29;20211;-77
2021/11/27 20:19:29;;;;;;;8.73;4.40;;;4.30;99.90;;;;;;4899369;29;20762;-75
2021/11/27 20:21:55;;;;;;;9.23;4.50;;;4.40;99.90;;;;;;4899061;29;20762;-76
2021/11/27 20:24:22;;;;;;;10.00;4.10;;;4.40;99.90;;;;;;4896789;29;20214;-76
2021/11/27 20:26:50;;;;;;;9.40;4.67;;;4.40;99.90;;;;;;4880216;29;20211;-74
2021/11/27 20:29:17;;;;;;;7.87;3.80;;;4.40;99.90;;;;;;4880670;29;20235;-75
2021/11/27 20:31:44;;;;;;;9.67;4.33;;;4.40;99.90;;;;;;4880486;29;20239;-77
2021/11/27 20:34:12;;;;;;;7.97;4.13;;;4.40;99.90;;;;;;4879683;29;20223;-75
2021/11/27 20:36:40;;;;;;;7.77;4.10;;;4.40;99.90;;;;;;4879627;29;20314;-77
2021/11/27 20:39:07;;;;;;;6.77;3.83;;;4.50;99.90;;;;;;4880043;29;20235;-77
2021/11/27 20:41:35;;;;;;;8.23;4.03;;;4.40;99.90;;;;;;4877149;29;20212;-76
2021/11/27 20:44:03;;;;;;;10.30;4.30;;;4.40;99.90;;;;;;4892300;29;20213;-74
2021/11/27 20:46:30;;;;;;;13.93;5.40;;;4.40;99.90;;;;;;4893018;29;20214;-78
2021/11/27 20:48:57;;;;;;;9.13;5.00;;;4.50;99.90;;;;;;4898248;29;20753;-78
2021/11/27 20:51:25;;;;;;;6.97;4.10;;;4.50;99.90;;;;;;4897683;29;20230;-78
2021/11/27 20:53:52;;;;;;;11.80;5.10;;;4.40;99.90;;;;;;4896807;29;20343;-76
2021/11/27 20:56:19;;;;;;;8.37;3.67;;;4.30;99.90;;;;;;4898515;29;20290;-77
2021/11/27 20:58:46;;;;;;;9.23;4.60;;;4.30;99.90;;;;;;4898298;29;20215;-77
2021/11/27 21:01:14;;;;;;;7.57;4.00;;;4.30;99.90;;;;;;4898278;29;20225;-78
2021/11/27 21:03:44;;;;;;;5.87;3.73;;;4.40;99.90;;;;;;4896857;29;20233;-75
2021/11/27 21:06:13;;;;;;;9.07;4.07;;;4.50;99.90;;;;;;4898593;29;20218;-70
2021/11/27 21:08:40;;;;;;;9.87;4.00;;;4.40;99.90;;;;;;4896546;29;20254;-75
2021/11/27 21:11:09;;;;;;;8.40;3.57;;;4.40;99.90;;;;;;4898053;29;20242;-75
2021/11/27 21:13:36;;;;;;;9.83;4.13;;;4.50;99.90;;;;;;4898385;29;20218;-75
2021/11/27 21:16:04;;;;;;;8.17;4.33;;;4.40;99.90;;;;;;4898189;29;20221;-75
2021/11/27 21:18:32;;;;;;;8.10;4.07;;;4.40;99.90;;;;;;4898310;29;20256;-76
2021/11/27 21:20:59;;;;;;;7.03;3.87;;;4.40;99.90;;;;;;4897976;29;20217;-77
2021/11/27 21:23:27;;;;;;;5.10;3.20;;;4.60;99.90;;;;;;4898381;29;20698;-76
2021/11/27 21:25:56;;;;;;;7.13;3.90;;;4.60;99.90;;;;;;4898081;29;20572;-75
2021/11/27 21:28:23;;;;;;;8.40;3.37;;;4.50;99.90;;;;;;4888025;29;20206;-74
2021/11/27 21:30:50;;;;;;;8.63;4.00;;;4.40;99.90;;;;;;4878742;29;20232;-76
2021/11/27 21:33:19;;;;;;;8.57;3.93;;;4.30;99.90;;;;;;4879045;29;20222;-72
2021/11/27 21:35:47;;;;;;;6.57;4.23;;;4.20;99.90;;;;;;4878775;29;20215;-75
2021/11/27 21:38:14;;;;;;;5.90;3.50;;;4.20;99.90;;;;;;4879440;29;20215;-76
2021/11/27 21:40:41;;;;;;;7.93;4.03;;;4.20;99.90;;;;;;4879655;29;20613;-74
2021/11/27 21:43:08;;;;;;;8.93;4.27;;;4.10;99.90;;;;;;4891653;29;20568;-75
2021/11/27 21:45:35;;;;;;;7.83;4.47;;;4.20;99.90;;;;;;4889110;29;20335;-76
2021/11/27 21:48:02;;;;;;;12.17;4.73;;;4.10;99.90;;;;;;4878743;29;20562;-75
2021/11/27 21:50:29;;;;;;;8.70;4.93;;;4.10;99.90;;;;;;4879679;29;20325;-75
2021/11/27 21:52:57;;;;;;;9.33;5.43;;;4.20;99.90;;;;;;4879049;29;20243;-75
2021/11/27 21:55:24;;;;;;;10.27;5.50;;;4.20;99.90;;;;;;4879698;29;20219;-76
2021/11/27 21:57:51;;;;;;;11.33;5.37;;;4.20;99.90;;;;;;4879483;29;20227;-75
2021/11/27 22:00:18;;;;;;;11.10;5.87;;;4.30;99.90;;;;;;4878950;29;20226;-76
2021/11/27 22:02:45;;;;;;;12.57;6.27;;;4.30;99.90;;;;;;4879182;29;20696;-76
2021/11/27 22:05:12;;;;;;;10.67;5.53;;;4.40;99.90;;;;;;4878849;29;20676;-76
2021/11/27 22:07:38;;;;;;;12.23;6.10;;;4.30;99.90;;;;;;4878766;29;20660;-77
2021/11/27 22:10:07;;;;;;;9.83;5.90;;;4.20;99.90;;;;;;4878874;29;20265;-76
2021/11/27 22:12:34;;;;;;;13.67;6.90;;;4.20;99.90;;;;;;4878745;29;20246;-76